Time;durP1;ratioP1;P1;durP2;ratioP2;P2;SDS_P1;SDS_P2;PMS_P1;PMS_P2;Temp;Humidity;BMP_temperature;BMP_pressure;BME280_temperature;BME280_humidity;BME280_pressure;Samples;Min_cycle;Max_cycle;Signal;HPM_P1;HPM_P2
2021/03/19 14:25:09;;;;;;;3.60;2.70;;;;;;;5.75;100.00;98653.05;1785937;79;22051;-65
2021/03/19 14:27:39;;;;;;;3.30;2.58;;;;;;;5.90;100.00;98650.53;1783062;80;21005;-65
2021/03/19 14:30:13;;;;;;;3.30;3.00;;;;;;;5.85;100.00;98653.09;1783039;80;21423;-66
2021/03/19 14:32:42;;;;;;;4.85;2.98;;;;;;;5.79;100.00;98656.12;1783046;79;21081;-65
2021/03/19 14:35:14;;;;;;;4.30;2.95;;;;;;;5.79;100.00;98656.12;1783042;80;20938;-65
2021/03/19 14:37:44;;;;;;;3.02;2.60;;;;;;;5.81;100.00;98655.26;1783139;80;21460;-65
2021/03/19 14:40:25;;;;;;;5.12;3.45;;;;;;;5.83;100.00;98654.83;1783067;79;20926;-66
2021/03/19 14:42:56;;;;;;;3.58;2.70;;;;;;;5.74;100.00;98658.72;1783153;79;21279;-65
2021/03/19 14:45:26;;;;;;;3.55;2.83;;;;;;;5.69;100.00;98663.05;1782973;79;21089;-63
2021/03/19 14:47:57;;;;;;;3.98;2.67;;;;;;;5.65;100.00;98659.95;1783099;79;21547;-64
2021/03/19 14:50:31;;;;;;;3.45;2.92;;;;;;;5.60;100.00;98655.99;1782559;80;21009;-64
2021/03/19 14:53:01;;;;;;;3.80;2.75;;;;;;;5.61;100.00;98666.91;1763140;80;21080;-64
2021/03/19 14:55:30;;;;;;;4.08;3.10;;;;;;;5.53;100.00;98660.75;1776401;80;21209;-64
2021/03/19 14:58:00;;;;;;;5.78;3.70;;;;;;;5.46;100.00;98668.12;1758987;80;21589;-63
2021/03/19 15:00:39;;;;;;;4.67;3.87;;;;;;;5.44;100.00;98662.44;1781650;80;21025;-65
2021/03/19 15:03:09;;;;;;;6.60;4.50;;;;;;;5.44;100.00;98662.00;1738503;81;21134;-64
2021/03/19 15:05:41;;;;;;;4.58;3.98;;;;;;;5.43;100.00;98664.61;1760857;81;20994;-62
2021/03/19 15:08:13;;;;;;;4.70;3.42;;;;;;;5.36;100.00;98663.27;1740712;81;21454;-62
2021/03/19 15:10:46;;;;;;;4.37;3.45;;;;;;;5.38;100.00;98668.06;1736439;81;20953;-64
2021/03/19 15:13:15;;;;;;;10.72;5.50;;;;;;;5.35;100.00;98670.66;1749139;81;21485;-64
2021/03/19 15:15:47;;;;;;;4.83;3.60;;;;;;;5.29;100.00;98674.55;1760741;81;20899;-64
2021/03/19 15:18:17;;;;;;;4.65;3.47;;;;;;;5.18;100.00;98678.79;1748640;81;21087;-64
2021/03/19 15:20:51;;;;;;;3.60;2.95;;;;;;;5.08;100.00;98675.66;1730404;82;21157;-63
2021/03/19 15:23:27;;;;;;;4.00;2.47;;;;;;;5.01;100.00;98674.73;1730178;82;21040;-64
2021/03/19 15:25:57;;;;;;;3.10;2.80;;;;;;;4.95;100.00;98679.91;1736261;80;20990;-64
2021/03/19 15:28:27;;;;;;;5.28;3.83;;;;;;;4.93;100.00;98684.25;1752033;80;20923;-67
2021/03/19 15:30:57;;;;;;;7.95;6.22;;;;;;;4.94;100.00;98687.74;1753632;81;21025;-63
2021/03/19 15:33:27;;;;;;;9.53;6.62;;;;;;;4.96;100.00;98684.70;1760275;81;21445;-63
2021/03/19 15:35:57;;;;;;;8.00;4.70;;;;;;;4.99;100.00;98691.27;1760261;81;21045;-62
2021/03/19 15:38:28;;;;;;;6.50;5.05;;;;;;;4.93;100.00;98692.09;1755547;81;21232;-64
2021/03/19 15:41:00;;;;;;;5.95;4.95;;;;;;;4.87;100.00;98702.92;1724608;81;21283;-63
2021/03/19 15:43:32;;;;;;;6.33;4.67;;;;;;;4.81;100.00;98697.64;1743855;81;21006;-64
2021/03/19 15:46:02;;;;;;;6.50;5.42;;;;;;;4.78;100.00;98704.14;1744018;81;21367;-62
2021/03/19 15:48:31;;;;;;;6.35;4.70;;;;;;;4.73;100.00;98701.48;1772510;79;21181;-61
2021/03/19 15:51:04;;;;;;;5.92;4.90;;;;;;;4.69;100.00;98704.47;1722931;81;21193;-62
2021/03/19 15:53:37;;;;;;;6.67;5.60;;;;;;;4.66;100.00;98707.05;1760795;80;20975;-63
2021/03/19 15:56:10;;;;;;;7.20;5.90;;;;;;;4.65;100.00;98703.11;1753105;81;22063;-64
2021/03/19 15:58:40;;;;;;;6.97;4.97;;;;;;;4.61;100.00;98706.56;1763213;80;23751;-63
2021/03/19 16:01:09;;;;;;;6.62;5.87;;;;;;;4.56;100.00;98711.73;1758983;81;20961;-63
2021/03/19 16:03:39;;;;;;;8.78;5.72;;;;;;;4.55;100.00;98708.67;1767072;80;21491;-61
2021/03/19 16:06:08;;;;;;;8.23;5.92;;;;;;;4.52;100.00;98715.17;1749201;82;20902;-62
2021/03/19 16:08:38;;;;;;;6.83;5.80;;;;;;;4.49;100.00;98719.05;1782511;79;20933;-63
2021/03/19 16:11:10;;;;;;;9.83;6.42;;;;;;;4.43;100.00;98714.64;1790235;79;22194;-63
2021/03/19 16:13:56;;;;;;;;;;;;;;;;;;;;;
2021/03/19 16:16:17;;;;;;;10.28;7.58;;;;;;;4.50;100.00;98730.38;1837232;77;22767;-62
2021/03/19 16:18:48;;;;;;;10.40;7.35;;;;;;;4.46;100.00;98727.29;1809585;79;21437;-66
2021/03/19 16:21:18;;;;;;;10.75;7.03;;;;;;;4.48;100.00;98730.80;1786356;78;21370;-62
2021/03/19 16:23:47;;;;;;;9.58;6.65;;;;;;;4.49;100.00;98736.47;1750830;80;21461;-63
2021/03/19 16:26:17;;;;;;;7.58;6.50;;;;;;;4.47;100.00;98735.14;1781406;80;20952;-63
2021/03/19 16:28:47;;;;;;;9.00;6.50;;;;;;;4.45;100.00;98734.67;1781645;80;20927;-63
2021/03/19 16:31:16;;;;;;;8.08;6.17;;;;;;;4.42;100.00;98731.60;1781386;80;21057;-62
2021/03/19 16:33:46;;;;;;;9.58;6.42;;;;;;;4.40;100.00;98738.54;1750745;80;21337;-63
2021/03/19 16:36:18;;;;;;;12.47;6.72;;;;;;;4.37;100.00;98746.34;1781567;80;20963;-64
2021/03/19 16:38:52;;;;;;;8.28;6.50;;;;;;;4.34;100.00;98741.08;1735319;82;20956;-62
2021/03/19 16:41:21;;;;;;;9.73;6.50;;;;;;;4.34;100.00;98749.80;1691761;81;21575;-62
2021/03/19 16:43:51;;;;;;;10.15;7.15;;;;;;;4.28;100.00;98745.80;1744599;80;20993;-62
2021/03/19 16:46:23;;;;;;;9.98;6.85;;;;;;;4.19;100.00;98748.27;1744642;80;21202;-62
2021/03/19 16:48:53;;;;;;;9.18;5.83;;;;;;;4.10;100.00;98753.37;1771362;79;20977;-62
2021/03/19 16:51:27;;;;;;;9.33;6.30;;;;;;;4.05;100.00;98757.22;1744562;80;21010;-62
2021/03/19 16:53:56;;;;;;;7.42;5.80;;;;;;;3.97;100.00;98754.94;1744327;80;21480;-62
2021/03/19 16:56:27;;;;;;;7.58;5.47;;;;;;;3.91;100.00;98760.08;1771263;79;21032;-63
2021/03/19 16:58:56;;;;;;;8.28;5.72;;;;;;;3.84;100.00;98758.23;1740167;80;21414;-62
2021/03/19 17:01:28;;;;;;;8.65;6.35;;;;;;;3.79;100.00;98754.69;1738464;82;20908;-63
2021/03/19 17:04:06;;;;;;;7.65;6.25;;;;;;;3.77;100.00;98765.06;1738719;82;21474;-62
2021/03/19 17:06:34;;;;;;;9.18;6.37;;;;;;;3.77;100.00;98764.19;1738543;82;21529;-62
2021/03/19 17:09:05;;;;;;;9.80;6.28;;;;;;;3.75;100.00;98768.08;1738610;82;21023;-63
2021/03/19 17:11:34;;;;;;;8.60;6.00;;;;;;;3.76;100.00;98761.13;1734576;82;21368;-63
2021/03/19 17:14:04;;;;;;;6.78;5.33;;;;;;;3.75;100.00;98761.55;1751679;82;21006;-63
2021/03/19 17:16:34;;;;;;;7.50;5.60;;;;;;;3.75;100.00;98764.16;1732120;82;21132;-63
2021/03/19 17:19:04;;;;;;;7.45;5.95;;;;;;;3.74;100.00;98769.36;1743737;82;20987;-62
2021/03/19 17:21:33;;;;;;;8.15;6.28;;;;;;;3.74;100.00;98768.05;1732261;82;21580;-63
2021/03/19 17:24:04;;;;;;;7.35;5.58;;;;;;;3.71;100.00;98771.92;1743833;82;21420;-63
2021/03/19 17:26:34;;;;;;;5.95;4.97;;;;;;;3.64;100.00;98772.27;1740287;82;21555;-63
2021/03/19 17:29:03;;;;;;;9.18;5.60;;;;;;;3.58;100.00;98771.30;1779679;79;21548;-62
2021/03/19 17:31:32;;;;;;;6.17;5.03;;;;;;;3.54;100.00;98765.16;1800680;79;20970;-62
2021/03/19 17:34:02;;;;;;;7.53;5.30;;;;;;;3.54;100.00;98774.28;1806136;79;21081;-60
2021/03/19 17:36:32;;;;;;;6.53;5.30;;;;;;;3.47;100.00;98768.52;1801308;78;22125;-61
2021/03/19 17:39:01;;;;;;;6.42;4.83;;;;;;;3.43;100.00;98767.59;1784748;78;21520;-62
2021/03/19 17:41:30;;;;;;;6.50;5.37;;;;;;;3.45;100.00;98771.10;1774449;79;20994;-61
2021/03/19 17:44:00;;;;;;;7.33;5.35;;;;;;;3.45;100.00;98775.02;1787029;78;21026;-62
2021/03/19 17:46:30;;;;;;;8.78;5.95;;;;;;;3.48;100.00;98770.27;1805939;79;21026;-62
2021/03/19 17:49:02;;;;;;;6.92;5.08;;;;;;;3.43;100.00;98775.41;1794413;78;21185;-61
2021/03/19 17:51:31;;;;;;;7.97;5.62;;;;;;;3.42;100.00;98774.97;1778141;79;21065;-63
2021/03/19 17:54:00;;;;;;;7.80;5.22;;;;;;;3.39;100.00;98774.04;1786527;79;21587;-61
2021/03/19 17:56:32;;;;;;;7.12;5.33;;;;;;;3.37;100.00;98778.34;1774335;80;21598;-61
2021/03/19 17:59:03;;;;;;;5.97;5.22;;;;;;;3.35;100.00;98773.54;1793778;78;21544;-61
2021/03/19 18:01:34;;;;;;;5.85;5.00;;;;;;;3.36;100.00;98776.17;1774547;79;21005;-61
2021/03/19 18:04:05;;;;;;;7.00;5.00;;;;;;;3.36;100.00;98780.50;1769979;79;20994;-61
2021/03/19 18:06:37;;;;;;;7.87;5.42;;;;;;;3.39;100.00;98778.83;1774359;79;20950;-60
2021/03/19 18:09:08;;;;;;;7.87;5.40;;;;;;;3.41;100.00;98779.73;1746458;79;20875;-61
2021/03/19 18:11:38;;;;;;;7.37;5.25;;;;;;;3.41;100.00;98777.55;1737676;81;20942;-60
2021/03/19 18:14:08;;;;;;;6.72;5.47;;;;;;;3.44;100.00;98781.50;1773804;79;22134;-60
2021/03/19 18:16:37;;;;;;;9.28;6.42;;;;;;;3.42;100.00;98773.66;1767172;79;21488;-60
2021/03/19 18:19:07;;;;;;;7.83;4.97;;;;;;;3.41;100.00;98777.12;1766132;79;20892;-64
2021/03/19 18:21:45;;;;;;;6.92;5.03;;;;;;;3.40;100.00;98781.00;1766268;79;21457;-64
2021/03/19 18:24:15;;;;;;;6.78;5.17;;;;;;;3.38;100.00;98775.77;1766197;79;21011;-64
2021/03/19 18:26:45;;;;;;;6.47;5.22;;;;;;;3.37;100.00;98787.48;1766211;79;21190;-64
2021/03/19 18:29:14;;;;;;;6.97;5.30;;;;;;;3.34;100.00;98784.39;1793690;79;21011;-64
2021/03/19 18:31:44;;;;;;;6.60;5.08;;;;;;;3.32;100.00;98778.70;1795765;79;21024;-62
2021/03/19 18:34:15;;;;;;;5.90;5.12;;;;;;;3.32;100.00;98788.70;1788418;79;21035;-62
2021/03/19 18:36:45;;;;;;;7.05;5.28;;;;;;;3.33;100.00;98782.64;1716733;82;21169;-62
2021/03/19 18:39:14;;;;;;;7.53;5.53;;;;;;;3.38;100.00;98791.84;1720822;81;21207;-64
2021/03/19 18:41:46;;;;;;;7.70;5.80;;;;;;;3.31;100.00;98788.64;1725154;82;21173;-64
2021/03/19 18:44:17;;;;;;;6.78;5.60;;;;;;;3.29;100.00;98792.53;1725772;82;21022;-65
2021/03/19 18:46:47;;;;;;;9.05;6.15;;;;;;;3.35;100.00;98790.48;1787517;78;21204;-64
2021/03/19 18:49:18;;;;;;;9.00;6.08;;;;;;;3.26;100.00;98792.91;1786780;79;21023;-63
2021/03/19 18:51:48;;;;;;;7.80;5.58;;;;;;;3.25;100.00;98788.54;1781720;79;21436;-63
2021/03/19 18:54:18;;;;;;;7.83;5.65;;;;;;;3.26;100.00;98792.48;1789388;79;21155;-63
2021/03/19 18:56:48;;;;;;;7.42;6.03;;;;;;;3.26;100.00;98792.48;1782040;79;21600;-64
2021/03/19 18:59:17;;;;;;;7.08;5.30;;;;;;;3.27;100.00;98795.53;1720118;82;21579;-64
2021/03/19 19:01:49;;;;;;;6.67;5.20;;;;;;;3.24;100.00;98798.09;1725975;82;21176;-62
2021/03/19 19:04:19;;;;;;;6.10;5.40;;;;;;;3.19;100.00;98792.34;1781926;79;22108;-64
2021/03/19 19:06:52;;;;;;;9.18;5.00;;;;;;;3.21;100.00;98794.13;1718415;81;21580;-64
2021/03/19 19:09:22;;;;;;;6.37;5.12;;;;;;;3.23;100.00;98792.42;1725278;81;21027;-63
2021/03/19 19:11:53;;;;;;;7.97;5.40;;;;;;;3.21;100.00;98795.43;1782594;79;20931;-61
2021/03/19 19:14:25;;;;;;;7.80;5.40;;;;;;;3.19;100.00;98796.26;1785231;79;21054;-63
2021/03/19 19:16:55;;;;;;;7.50;5.75;;;;;;;3.14;100.00;98793.14;1722957;82;21377;-63
2021/03/19 19:19:25;;;;;;;9.10;5.72;;;;;;;3.12;100.00;98795.27;1729929;82;20947;-63
2021/03/19 19:21:56;;;;;;;8.43;6.25;;;;;;;3.07;100.00;98796.92;1732811;82;21224;-63
2021/03/19 19:24:25;;;;;;;9.10;6.60;;;;;;;3.03;100.00;98798.59;1716770;81;21181;-63
2021/03/19 19:26:55;;;;;;;7.75;6.42;;;;;;;3.03;100.00;98805.11;1726577;82;21559;-62
2021/03/19 19:29:24;;;;;;;8.50;6.58;;;;;;;3.02;100.00;98805.08;1785561;79;21323;-62
2021/03/19 19:31:54;;;;;;;8.93;6.70;;;;;;;3.01;100.00;98807.23;1783149;79;21128;-63
2021/03/19 19:34:23;;;;;;;8.28;6.60;;;;;;;3.01;100.00;98806.81;1744371;80;21053;-63
2021/03/19 19:36:53;;;;;;;8.10;6.30;;;;;;;3.03;100.00;98809.02;1724208;82;21492;-60
2021/03/19 19:39:24;;;;;;;7.92;6.55;;;;;;;3.03;100.00;98810.32;1779941;79;21058;-61
2021/03/19 19:41:54;;;;;;;9.03;7.37;;;;;;;3.04;100.00;98805.98;1713511;83;21332;-61
2021/03/19 19:44:25;;;;;;;11.55;8.20;;;;;;;3.04;100.00;98809.89;1726703;82;20972;-61
2021/03/19 19:46:56;;;;;;;9.88;8.08;;;;;;;3.00;100.00;98807.66;1782901;79;21036;-62
2021/03/19 19:49:27;;;;;;;11.22;7.95;;;;;;;2.95;100.00;98808.00;1783963;79;21204;-62
2021/03/19 19:51:58;;;;;;;10.77;7.90;;;;;;;2.91;100.00;98807.49;1781687;79;21109;-61
2021/03/19 19:54:29;;;;;;;10.80;8.23;;;;;;;2.92;100.00;98800.55;1785285;79;22251;-61
2021/03/19 19:57:00;;;;;;;10.45;7.90;;;;;;;2.87;100.00;98805.68;1785837;78;22097;-60
2021/03/19 19:59:30;;;;;;;10.55;7.65;;;;;;;2.82;100.00;98809.47;1788086;79;21018;-61
2021/03/19 20:01:59;;;;;;;16.20;8.35;;;;;;;2.76;100.00;98805.45;1789769;79;21015;-60
2021/03/19 20:04:29;;;;;;;10.58;7.75;;;;;;;2.70;100.00;98797.94;1787904;79;21161;-61
2021/03/19 20:06:59;;;;;;;9.83;8.00;;;;;;;2.70;100.00;98806.63;1783481;79;21190;-66
2021/03/19 20:09:29;;;;;;;11.03;8.23;;;;;;;2.74;100.00;98804.96;1783145;78;21576;-62
2021/03/19 20:11:59;;;;;;;11.05;8.68;;;;;;;2.70;100.00;98805.75;1788077;78;21097;-62
2021/03/19 20:14:29;;;;;;;11.78;8.38;;;;;;;2.65;100.00;98813.48;1790120;79;21576;-67
2021/03/19 20:17:00;;;;;;;12.33;8.60;;;;;;;2.64;100.00;98810.41;1775093;79;22010;-60
2021/03/19 20:19:29;;;;;;;11.15;8.43;;;;;;;2.65;100.00;98809.99;1772742;79;21464;-60
2021/03/19 20:21:58;;;;;;;9.68;8.10;;;;;;;2.66;100.00;98816.95;1763705;79;20938;-59
2021/03/19 20:24:29;;;;;;;8.73;6.78;;;;;;;2.67;100.00;98819.59;1747172;80;20978;-59
2021/03/19 20:26:58;;;;;;;9.80;8.00;;;;;;;2.68;100.00;98817.44;1769366;79;21139;-61
2021/03/19 20:29:28;;;;;;;10.18;7.50;;;;;;;2.69;100.00;98819.63;1775493;79;21128;-61
2021/03/19 20:31:58;;;;;;;10.15;7.70;;;;;;;2.69;100.00;98816.59;1775949;79;21321;-61
2021/03/19 20:34:28;;;;;;;9.28;6.70;;;;;;;2.65;100.00;98818.69;1776948;79;21005;-62
2021/03/19 20:36:59;;;;;;;10.53;7.53;;;;;;;2.60;100.00;98812.93;1776570;79;21603;-61
2021/03/19 20:39:33;;;;;;;10.10;7.95;;;;;;;2.58;100.00;98815.92;1777076;79;21140;-59
2021/03/19 20:42:05;;;;;;;12.05;8.13;;;;;;;2.55;100.00;98815.87;1777096;79;21065;-60
2021/03/19 20:44:34;;;;;;;11.20;7.60;;;;;;;2.46;100.00;98816.56;1776337;79;22109;-59
2021/03/19 20:47:03;;;;;;;9.68;7.28;;;;;;;2.35;100.00;98811.10;1775339;80;21064;-61
2021/03/19 20:49:36;;;;;;;9.93;7.65;;;;;;;2.36;100.00;98818.06;1775395;80;21053;-61
2021/03/19 20:52:06;;;;;;;9.43;7.40;;;;;;;2.36;100.00;98820.66;1775438;80;21457;-61
2021/03/19 20:54:35;;;;;;;9.98;7.50;;;;;;;2.36;100.00;98824.57;1765869;80;20926;-62
2021/03/19 20:57:05;;;;;;;10.23;8.13;;;;;;;2.37;100.00;98819.85;1769180;79;21476;-62
2021/03/19 20:59:35;;;;;;;10.38;7.83;;;;;;;2.34;100.00;98826.26;1775371;80;21053;-59
2021/03/19 21:02:10;;;;;;;9.40;7.65;;;;;;;2.33;100.00;98827.53;1776310;79;21472;-60
2021/03/19 21:04:39;;;;;;;10.40;8.43;;;;;;;2.37;100.00;98821.16;1770388;79;21049;-62
2021/03/19 21:07:16;;;;;;;9.78;8.15;;;;;;;2.40;100.00;98825.13;1775952;80;20945;-61
2021/03/19 21:09:47;;;;;;;11.95;8.30;;;;;;;2.38;100.00;98826.81;1751272;80;21306;-60
2021/03/19 21:12:24;;;;;;;10.45;7.95;;;;;;;2.36;100.00;98832.80;1746405;80;20942;-60
2021/03/19 21:14:55;;;;;;;10.35;7.72;;;;;;;2.35;100.00;98834.95;1748556;80;21001;-60
2021/03/19 21:17:26;;;;;;;11.73;7.42;;;;;;;2.33;100.00;98827.11;1778240;78;21487;-62
2021/03/19 21:19:55;;;;;;;9.25;7.72;;;;;;;2.29;100.00;98828.31;1796236;79;21073;-60
2021/03/19 21:22:24;;;;;;;10.80;8.25;;;;;;;2.26;100.00;98836.93;1788185;80;22272;-60
2021/03/19 21:24:54;;;;;;;11.12;8.08;;;;;;;2.20;100.00;98835.50;1768879;79;21009;-63
2021/03/19 21:27:24;;;;;;;10.58;7.62;;;;;;;2.17;100.00;98840.21;1768976;79;20994;-62
2021/03/19 21:29:54;;;;;;;9.33;7.37;;;;;;;2.10;100.00;98838.75;1768890;79;21029;-61
2021/03/19 21:32:23;;;;;;;10.60;7.40;;;;;;;2.04;100.00;98834.28;1768995;79;21713;-61
2021/03/19 21:34:53;;;;;;;10.88;8.38;;;;;;;1.99;100.00;98833.30;1780169;79;21249;-62
2021/03/19 21:37:22;;;;;;;12.40;8.10;;;;;;;2.00;100.00;98837.66;1727870;82;21579;-62
2021/03/19 21:39:52;;;;;;;11.35;8.18;;;;;;;2.03;100.00;98839.45;1737145;82;21015;-62
2021/03/19 21:42:21;;;;;;;12.80;8.78;;;;;;;2.07;100.00;98835.66;1727967;82;20991;-61
2021/03/19 21:44:51;;;;;;;12.20;7.80;;;;;;;2.11;100.00;98840.50;1737131;82;21165;-61
2021/03/19 21:47:21;;;;;;;12.45;7.65;;;;;;;2.12;100.00;98840.95;1796083;80;22121;-62
2021/03/19 21:49:51;;;;;;;9.28;7.28;;;;;;;2.09;100.00;98842.19;1727979;82;21046;-61
2021/03/19 21:52:20;;;;;;;10.05;7.12;;;;;;;2.07;100.00;98845.18;1728012;82;21058;-62
2021/03/19 21:54:51;;;;;;;9.33;6.90;;;;;;;2.06;100.00;98848.63;1736947;82;21083;-61
2021/03/19 21:57:20;;;;;;;9.15;7.08;;;;;;;2.05;100.00;98847.75;1795977;79;21169;-61
2021/03/19 21:59:50;;;;;;;10.88;8.03;;;;;;;2.04;100.00;98845.11;1728229;82;21541;-61
2021/03/19 22:02:19;;;;;;;9.85;7.40;;;;;;;2.02;100.00;98845.08;1737190;82;21128;-62
2021/03/19 22:04:48;;;;;;;9.05;7.03;;;;;;;1.97;100.00;98845.40;1728158;82;21505;-62
2021/03/19 22:07:17;;;;;;;8.58;7.25;;;;;;;1.99;100.00;98845.02;1737238;82;20939;-59
2021/03/19 22:09:48;;;;;;;8.30;6.28;;;;;;;1.96;100.00;98852.74;1796135;79;20903;-60
2021/03/19 22:12:17;;;;;;;8.55;6.70;;;;;;;1.94;100.00;98854.43;1718147;82;21210;-62
2021/03/19 22:14:45;;;;;;;9.60;7.03;;;;;;;1.93;100.00;98862.20;1744941;80;21539;-62
2021/03/19 22:17:15;;;;;;;8.05;6.33;;;;;;;1.92;100.00;98861.31;1749628;80;21473;-62
2021/03/19 22:19:45;;;;;;;8.53;6.97;;;;;;;1.92;100.00;98863.92;1752576;80;20938;-62
2021/03/19 22:22:14;;;;;;;8.40;6.87;;;;;;;1.95;100.00;98863.99;1753731;80;21495;-62
2021/03/19 22:24:43;;;;;;;9.15;7.20;;;;;;;1.92;100.00;98860.44;1753701;80;21134;-62
2021/03/19 22:27:12;;;;;;;10.20;7.28;;;;;;;1.86;100.00;98871.13;1753650;80;20950;-62
2021/03/19 22:29:42;;;;;;;12.25;7.85;;;;;;;1.85;100.00;98870.67;1753716;80;21556;-62
2021/03/19 22:32:11;;;;;;;9.38;7.47;;;;;;;1.83;100.00;98872.78;1753775;80;20951;-62
2021/03/19 22:34:41;;;;;;;9.95;7.00;;;;;;;1.79;100.00;98867.92;1753708;80;20958;-60
2021/03/19 22:37:10;;;;;;;10.18;7.28;;;;;;;1.77;100.00;98874.81;1753773;80;22225;-61
2021/03/19 22:39:39;;;;;;;11.03;7.17;;;;;;;1.77;100.00;98874.81;1753660;80;20942;-61
2021/03/19 22:42:08;;;;;;;10.35;7.22;;;;;;;1.75;100.00;98880.81;1753736;80;21073;-62
2021/03/19 22:44:37;;;;;;;9.10;7.30;;;;;;;1.74;100.00;98883.84;1753707;80;21524;-61
2021/03/19 22:47:06;;;;;;;9.88;6.90;;;;;;;1.79;100.00;98880.92;1753790;80;21529;-62
2021/03/19 22:49:35;;;;;;;9.95;7.85;;;;;;;1.82;100.00;98877.52;1753684;80;22210;-61
2021/03/19 22:52:04;;;;;;;10.53;7.42;;;;;;;1.84;100.00;98887.12;1753638;80;21133;-61
2021/03/19 22:54:34;;;;;;;10.30;7.72;;;;;;;1.85;100.00;98884.09;1753692;80;21033;-62
2021/03/19 22:57:03;;;;;;;11.50;8.40;;;;;;;1.84;100.00;98885.81;1753714;80;20956;-62
2021/03/19 22:59:35;;;;;;;14.03;10.15;;;;;;;1.88;100.00;98890.25;1738889;81;20989;-61
2021/03/19 23:02:07;;;;;;;12.40;9.28;;;;;;;1.92;100.00;98895.55;1747267;80;21214;-62
2021/03/19 23:04:37;;;;;;;10.72;8.55;;;;;;;1.92;100.00;98891.23;1754394;80;20942;-61
2021/03/19 23:07:10;;;;;;;13.25;8.33;;;;;;;1.90;100.00;98892.92;1754446;81;20942;-61
2021/03/19 23:09:45;;;;;;;14.28;10.20;;;;;;;1.87;100.00;98896.71;1738761;80;21520;-62
2021/03/19 23:12:21;;;;;;;12.40;7.80;;;;;;;1.93;100.00;98897.31;1716686;82;21068;-62
2021/03/19 23:14:48;;;;;;;8.55;7.33;;;;;;;1.96;100.00;98895.66;1732888;81;21497;-60
2021/03/19 23:17:41;;;;;;;13.13;7.58;;;;;;;1.99;100.00;98894.86;1747886;80;21145;-61
2021/03/19 23:20:13;;;;;;;15.50;8.33;;;;;;;1.95;100.00;98899.53;1744006;82;20962;-61
2021/03/19 23:22:51;;;;;;;15.15;8.45;;;;;;;1.91;100.00;98892.50;1737611;82;21061;-62
2021/03/19 23:25:18;;;;;;;27.27;10.33;;;;;;;1.88;100.00;98899.34;1722204;82;20959;-62
2021/03/19 23:27:49;;;;;;;31.93;12.23;;;;;;;1.86;100.00;98901.03;1735728;80;22368;-62
2021/03/19 23:30:23;;;;;;;28.83;10.58;;;;;;;1.85;100.00;98907.08;1728245;80;20953;-62
2021/03/19 23:32:53;;;;;;;19.75;9.58;;;;;;;1.87;100.00;98916.22;1717571;82;21101;-62
2021/03/19 23:35:23;;;;;;;21.87;10.82;;;;;;;1.81;100.00;98915.65;1721851;82;20954;-62
2021/03/19 23:37:54;;;;;;;18.40;10.30;;;;;;;1.82;100.00;98919.13;1744116;80;20907;-62
2021/03/19 23:40:35;;;;;;;14.35;9.38;;;;;;;1.83;100.00;98912.66;1744167;82;21371;-62
2021/03/19 23:43:05;;;;;;;14.90;7.92;;;;;;;1.85;100.00;98910.98;1744037;80;21520;-61
2021/03/19 23:45:37;;;;;;;12.40;7.40;;;;;;;1.83;100.00;98911.78;1744383;80;21504;-62
2021/03/19 23:48:08;;;;;;;9.65;6.80;;;;;;;1.83;100.00;98920.47;1729733;80;20952;-62
2021/03/19 23:50:45;;;;;;;9.23;6.55;;;;;;;1.86;100.00;98916.64;1714461;83;21482;-62
2021/03/19 23:53:14;;;;;;;9.25;7.03;;;;;;;1.89;100.00;98916.75;1714396;82;21363;-62
2021/03/19 23:55:43;;;;;;;9.15;6.58;;;;;;;1.92;100.00;98921.56;1694620;83;21445;-62
2021/03/19 23:58:14;;;;;;;7.35;6.12;;;;;;;1.94;100.00;98921.19;1766284;80;20982;-62
